createdAt,value
2023-03-21T00:01:03.497Z,8.44
2023-03-21T00:16:13.886Z,8.41
2023-03-21T00:31:09.938Z,8.36
2023-03-21T00:46:09.952Z,8.23
2023-03-21T01:01:10.736Z,8.15
2023-03-21T01:16:11.138Z,8.01
2023-03-21T01:31:11.745Z,8.02
2023-03-21T01:46:12.758Z,7.87
2023-03-21T02:01:13.035Z,7.87
2023-03-21T02:16:13.507Z,7.80
2023-03-21T02:31:14.549Z,7.68
2023-03-21T02:46:15.988Z,7.67
2023-03-21T03:01:17.346Z,7.71
2023-03-21T03:16:17.997Z,7.69
2023-03-21T03:31:20.785Z,7.64
2023-03-21T03:46:21.401Z,7.58
2023-03-21T04:01:21.663Z,7.45
2023-03-21T04:16:22.256Z,7.49
2023-03-21T04:31:26.001Z,7.43
2023-03-21T04:46:26.636Z,7.52
2023-03-21T05:01:27.519Z,7.39
2023-03-21T05:16:28.522Z,7.42
2023-03-21T05:31:29.320Z,7.40
2023-03-21T05:46:29.585Z,7.45
2023-03-21T06:01:30.146Z,7.53
2023-03-21T06:16:30.406Z,7.67
2023-03-21T06:31:30.679Z,7.64
2023-03-21T06:46:30.819Z,7.87
2023-03-21T07:01:31.151Z,7.92
2023-03-21T07:16:31.177Z,8.04
2023-03-21T07:31:31.877Z,8.16
2023-03-21T07:46:32.537Z,8.34
2023-03-21T08:01:32.749Z,8.43
2023-03-21T08:16:32.946Z,8.53
2023-03-21T08:31:33.207Z,8.59
2023-03-21T08:46:33.461Z,8.79
2023-03-21T09:01:33.838Z,8.95
2023-03-21T09:16:34.057Z,9.13
2023-03-21T09:31:34.626Z,9.32
2023-03-21T09:46:36.045Z,9.50
2023-03-21T10:01:36.986Z,9.66
2023-03-21T10:16:37.516Z,10.02
2023-03-21T10:31:37.525Z,10.14
2023-03-21T10:46:38.820Z,10.30
2023-03-21T11:01:40.013Z,10.47
2023-03-21T11:16:41.030Z,10.60
2023-03-21T11:31:41.662Z,11.04
2023-03-21T11:46:42.441Z,11.22
2023-03-21T12:01:43.293Z,11.35
2023-03-21T12:16:44.334Z,11.40
2023-03-21T12:31:46.057Z,11.67
2023-03-21T12:46:47.136Z,12.07
2023-03-21T13:01:47.807Z,12.42
2023-03-21T13:16:48.503Z,12.68
2023-03-21T13:31:52.448Z,12.68
2023-03-21T13:46:54.516Z,12.75
2023-03-21T14:01:55.336Z,12.46
2023-03-21T14:16:55.576Z,12.41
2023-03-21T14:31:56.406Z,12.39
2023-03-21T14:46:56.248Z,12.47
2023-03-21T15:01:56.837Z,12.42
2023-03-21T15:16:57.421Z,12.49
2023-03-21T15:31:57.448Z,12.46
2023-03-21T15:46:58.226Z,12.41
2023-03-21T16:01:58.721Z,12.34
2023-03-21T16:16:59.388Z,12.21
2023-03-21T16:32:00.877Z,12.07
2023-03-21T16:47:02.655Z,11.94
2023-03-21T17:02:03.391Z,11.86
2023-03-21T17:17:03.677Z,11.78
2023-03-21T17:32:03.804Z,11.70
2023-03-21T17:47:04.692Z,11.55
2023-03-21T18:02:04.867Z,11.47
2023-03-21T18:17:04.870Z,11.29
2023-03-21T18:32:07.352Z,11.28
2023-03-21T18:47:08.929Z,11.21
2023-03-21T19:02:10.479Z,11.18
2023-03-21T19:18:21.853Z,11.06
2023-03-21T19:32:17.112Z,10.85
2023-03-21T19:47:19.609Z,10.70
2023-03-21T20:02:35.028Z,10.59
2023-03-21T20:17:26.850Z,10.41
2023-03-21T20:32:27.311Z,10.45
2023-03-21T20:47:26.995Z,10.40
2023-03-21T21:02:27.679Z,10.18
2023-03-21T21:17:54.493Z,10.23
2023-03-21T21:32:33.791Z,10.01
2023-03-21T21:47:33.897Z,9.99
2023-03-21T22:02:34.458Z,9.87
2023-03-21T22:17:34.510Z,9.81
2023-03-21T22:32:35.085Z,9.69
2023-03-21T22:47:35.327Z,9.68
2023-03-21T23:02:35.682Z,9.64
2023-03-21T23:17:36.268Z,9.60
2023-03-21T23:32:37.364Z,9.61
2023-03-21T23:47:38.593Z,9.61
